Ledoux, New Mexico
Current Conditions -  °F | °C
As of 3:15 PM on Thursday 23 Oct 2014 (Local Time) from KAXX Reporting Station
Clear Clear  
Wind Chill: 63°   Ceiling: Unl
Heat Index: 63°   Visibility: 10mi
Dew Point: 23°   Wind: 10mph
Humidity: 22%   Direction: 240°WSW
Pressure: 30.33"   Gusts: NA
Location:  36.0379°N, 105.295°W
Report Text: KAXX 232115Z AUTO 24009KT 10SM CLR 17/M05 A3033 RMK AO2 T01711051
Loading
Personal Weather Stations






























Interactive Weather Map New forecast layout! Learn more

10-Day Weather Forecast

Advertisements
Track Severe Weather on mobile